Česky Dansk Deutsch English Español Suomi Français Magyar Italiano Nederlands norsk Polski Português svenska Türkçe

 

Het Weer

Bergamo / Orio Al Serio (Italië)

22:20, 14 augustus 2016 (GMT)

NWNNE
WE
SWSSE
Home            
Bergamo / Orio Al Serio Milano / Linate Brescia / Ghedi Monte Bisbino Brescia / Montichia Lugano Milano / Malpensa Novara / Cameri Piacenza Verona / Villafranca Parma Paganella Passo Dei Giovi Passo Della Cisa Vicenza Resia Pass Genova / Sestri Bolzano Pian Rosa Torino / Caselle Torino / Bric Della Croce Dova Area Control Center Passo Rolle

Om een weerknop op uw website of weblog te plaatsen, copieer onderstaande code en plak die in uw pagina. In het eerste vakje staat HTML-code, in het tweede vakje UBB-code.


Add to Google

Details

Wind speed:2 bf, 5 kn, 2.6 m/s, 5.8 miles/h, 9.3 km/h
Wind direction:NNE, 020°
Visibility:Greater than 10000 m, 10 km, 32800 ft, 6.2 miles
Clouds:CAVOC
Temperature:21°C, 70°F
Dew-point:18°C, 64°F
Atmospheric pressure:1021 hPa, 765.8 mmHg, 30.15 inHg, 1.008 atm
Relative humidity:83.0 %
METAR:LIME 142220Z 02005KT CAVOK 21/18 Q1021

Snelkoppelingen

Actuele weersinformatie van de hele wereld. Voeg locaties toe met het plus (+) symbool. Deze snelkoppelingen kunnen worden toegevoegd aan Google.

Lid van de Technetium groep

website free tracking
StatCounter NetStat W3C Validator

04-10-2022 05:45:39
astro.technetium.be money.technetium.be phote.technetium.be tafeltennistafel.technetium.be www.ligfiets.net